createdAt,value
2023-02-16T00:00:49.578Z,18.04
2023-02-16T00:03:23.606Z,18.21
2023-02-16T00:05:53.016Z,18.10
2023-02-16T00:24:39.104Z,18.13
2023-02-16T00:27:25.768Z,18.41
2023-02-16T00:29:54.911Z,18.22
2023-02-16T00:32:23.814Z,18.32
2023-02-16T00:34:53.070Z,18.39
2023-02-16T00:37:23.583Z,18.48
2023-02-16T00:39:52.558Z,18.51
2023-02-16T00:42:25.284Z,18.71
2023-02-16T00:44:54.985Z,18.97
2023-02-16T00:47:40.190Z,18.91
2023-02-16T00:54:08.622Z,18.74
2023-02-16T00:56:39.778Z,18.79
2023-02-16T00:59:13.367Z,18.82
2023-02-16T01:01:44.846Z,18.76
2023-02-16T01:04:27.349Z,18.90
2023-02-16T01:07:15.232Z,18.69
2023-02-16T01:10:03.056Z,18.67
2023-02-16T01:12:33.791Z,18.62
2023-02-16T01:15:03.992Z,18.67
2023-02-16T01:17:34.318Z,18.58
2023-02-16T01:20:05.134Z,18.58
2023-02-16T01:22:36.755Z,18.60
2023-02-16T01:25:09.946Z,18.59
2023-02-16T01:27:40.788Z,18.66
2023-02-16T01:30:23.012Z,18.80
2023-02-16T01:32:53.315Z,18.64
2023-02-16T01:35:36.070Z,18.87
2023-02-16T01:38:06.663Z,18.71
2023-02-16T01:40:36.666Z,18.70
2023-02-16T01:43:28.141Z,18.92
2023-02-16T01:46:03.792Z,18.84
2023-02-16T01:48:34.617Z,18.72
2023-02-16T01:51:17.707Z,18.87
2023-02-16T01:53:57.083Z,18.92
2023-02-16T01:56:43.990Z,18.90
2023-02-16T01:59:46.280Z,18.88
2023-02-16T02:02:25.871Z,18.80
2023-02-16T02:05:20.136Z,18.76
2023-02-16T02:08:19.960Z,18.82
2023-02-16T02:11:17.819Z,18.85
2023-02-16T02:14:10.838Z,18.61
2023-02-16T02:16:41.981Z,18.59
2023-02-16T02:19:13.194Z,18.70
2023-02-16T02:22:22.861Z,18.84
2023-02-16T02:25:05.250Z,18.93
2023-02-16T02:27:55.540Z,19.11
2023-02-16T02:30:28.977Z,19.07
2023-02-16T02:33:04.918Z,19.17
2023-02-16T02:35:51.790Z,19.50
2023-02-16T02:38:32.631Z,19.55
2023-02-16T02:41:45.487Z,19.62
2023-02-16T02:44:19.164Z,19.62
2023-02-16T02:46:49.707Z,19.63
2023-02-16T02:49:21.560Z,19.69
2023-02-16T02:51:53.045Z,19.77
2023-02-16T02:54:41.103Z,19.77
2023-02-16T02:57:44.606Z,19.95
2023-02-16T03:00:45.381Z,20.10
2023-02-16T03:03:34.066Z,20.12
2023-02-16T03:06:21.934Z,20.03
2023-02-16T03:09:00.224Z,19.89
2023-02-16T03:11:49.004Z,19.84
2023-02-16T03:14:44.865Z,20.03
2023-02-16T03:17:42.911Z,20.20
2023-02-16T03:20:35.015Z,20.15
2023-02-16T03:23:25.505Z,20.29
2023-02-16T03:26:14.237Z,20.17
2023-02-16T03:29:04.649Z,20.11
2023-02-16T03:31:40.072Z,20.23
2023-02-16T03:34:11.035Z,20.07
2023-02-16T03:36:45.459Z,19.94
2023-02-16T03:39:15.477Z,20.08
2023-02-16T03:41:52.643Z,20.32
2023-02-16T03:44:23.670Z,20.12
2023-02-16T03:46:53.965Z,20.16
2023-02-16T03:49:23.879Z,20.36
2023-02-16T03:51:53.675Z,20.42
2023-02-16T03:54:23.581Z,20.50
2023-02-16T03:56:53.737Z,20.64
2023-02-16T03:59:23.588Z,20.60
2023-02-16T04:01:53.797Z,20.64
2023-02-16T04:04:24.166Z,20.68
2023-02-16T04:06:54.573Z,20.88
2023-02-16T04:09:24.549Z,20.85
2023-02-16T04:12:12.490Z,20.92
2023-02-16T04:14:43.771Z,21.11
2023-02-16T04:17:14.292Z,21.30
2023-02-16T04:19:44.248Z,21.18
2023-02-16T04:22:14.202Z,21.41
2023-02-16T04:24:44.713Z,21.43
2023-02-16T04:27:14.781Z,21.60
2023-02-16T04:29:44.969Z,21.72
2023-02-16T04:32:15.903Z,21.78
2023-02-16T04:34:46.078Z,21.80
2023-02-16T04:37:16.267Z,21.85
2023-02-16T04:39:46.620Z,22.00
2023-02-16T04:42:17.156Z,22.23
2023-02-16T04:44:47.179Z,22.33
2023-02-16T04:47:17.713Z,22.43
2023-02-16T04:49:50.413Z,22.54
2023-02-16T04:52:20.085Z,22.73
2023-02-16T04:54:50.285Z,22.52
2023-02-16T04:57:22.829Z,22.87
2023-02-16T04:59:52.315Z,22.88
2023-02-16T05:02:24.804Z,23.04
2023-02-16T05:04:54.639Z,23.12
2023-02-16T05:07:25.278Z,23.15
2023-02-16T05:09:55.423Z,23.35
2023-02-16T05:12:44.414Z,23.30
2023-02-16T05:15:14.691Z,23.33
2023-02-16T05:17:45.174Z,23.51
2023-02-16T05:20:15.437Z,23.56
2023-02-16T05:22:46.993Z,23.44
2023-02-16T05:25:17.928Z,23.72
2023-02-16T05:27:48.167Z,23.96
2023-02-16T05:30:18.978Z,23.78
2023-02-16T05:32:48.941Z,24.09
2023-02-16T05:35:18.036Z,24.01
2023-02-16T05:37:47.588Z,24.34
2023-02-16T05:40:16.522Z,24.21
2023-02-16T05:42:45.564Z,24.11
2023-02-16T05:45:14.343Z,24.39
2023-02-16T05:47:45.058Z,24.37
2023-02-16T05:50:15.199Z,24.68
2023-02-16T05:52:44.006Z,24.65
2023-02-16T05:55:12.944Z,24.62
2023-02-16T05:57:41.850Z,24.82
2023-02-16T06:00:11.637Z,24.87
2023-02-16T06:02:40.538Z,24.95
2023-02-16T06:05:09.740Z,24.89
2023-02-16T06:07:39.136Z,25.00
2023-02-16T06:10:09.254Z,25.10
2023-02-16T06:12:38.286Z,25.03
2023-02-16T06:15:07.415Z,24.95
2023-02-16T06:17:36.183Z,25.06
2023-02-16T06:20:06.872Z,25.16
2023-02-16T06:22:35.907Z,25.32
2023-02-16T06:25:04.842Z,25.62
2023-02-16T06:27:33.973Z,25.71
2023-02-16T06:30:03.758Z,25.62
2023-02-16T06:32:34.506Z,25.67
2023-02-16T06:35:03.837Z,25.86
2023-02-16T06:37:32.497Z,26.00
2023-02-16T06:40:01.546Z,25.95
2023-02-16T06:42:30.374Z,26.22
2023-02-16T06:44:59.367Z,26.35
2023-02-16T06:47:28.277Z,26.41
2023-02-16T06:49:57.748Z,26.36
2023-02-16T06:52:26.805Z,26.18
2023-02-16T06:54:55.993Z,26.42
2023-02-16T06:57:24.809Z,26.53
2023-02-16T06:59:53.965Z,26.62
2023-02-16T07:02:22.777Z,26.80
2023-02-16T09:06:45.580Z,28.31
2023-02-16T09:09:15.366Z,28.36
2023-02-16T09:11:44.534Z,28.29
2023-02-16T09:14:13.614Z,28.28
2023-02-16T09:16:46.525Z,28.37
2023-02-16T09:19:21.555Z,28.49
2023-02-16T09:21:57.172Z,28.41
2023-02-16T09:24:27.897Z,28.40
2023-02-16T09:26:57.891Z,28.51
2023-02-16T09:29:26.830Z,28.43
2023-02-16T09:31:56.722Z,28.43
2023-02-16T09:34:27.755Z,28.43
2023-02-16T09:36:57.562Z,28.41
2023-02-16T09:39:27.165Z,28.34
2023-02-16T09:42:12.048Z,28.32
2023-02-16T09:45:02.360Z,28.45
2023-02-16T09:47:34.871Z,28.28
2023-02-16T09:50:38.237Z,28.45
2023-02-16T09:53:19.985Z,28.31
2023-02-16T09:55:55.428Z,28.22
2023-02-16T09:58:32.161Z,28.10
2023-02-16T10:01:25.222Z,27.89
2023-02-16T10:04:13.176Z,28.06
2023-02-16T10:07:04.708Z,28.15
2023-02-16T10:09:36.042Z,27.75
2023-02-16T10:12:10.697Z,27.60
2023-02-16T10:14:57.664Z,28.04
2023-02-16T10:17:38.833Z,27.94
2023-02-16T10:20:24.240Z,27.98
2023-02-16T10:23:02.527Z,27.91
2023-02-16T10:25:57.489Z,27.93
2023-02-16T10:28:51.592Z,27.91
2023-02-16T10:31:24.576Z,27.90
2023-02-16T10:34:02.638Z,27.81
2023-02-16T10:36:43.358Z,27.92
2023-02-16T10:39:26.621Z,27.74
2023-02-16T10:42:14.516Z,27.87
2023-02-16T10:44:50.161Z,27.81
2023-02-16T10:47:25.576Z,27.72
2023-02-16T10:49:54.763Z,27.52
2023-02-16T10:52:24.542Z,27.48
2023-02-16T10:54:53.951Z,27.43
2023-02-16T10:57:32.278Z,27.54
2023-02-16T11:00:08.041Z,27.59
2023-02-16T11:02:45.742Z,27.41
2023-02-16T11:05:37.242Z,27.56
2023-02-16T11:08:09.150Z,27.32
2023-02-16T11:10:55.570Z,27.63
2023-02-16T11:13:34.870Z,27.44
2023-02-16T11:16:21.858Z,27.38
2023-02-16T11:19:02.932Z,27.28
2023-02-16T11:21:50.069Z,27.35
2023-02-16T11:24:39.535Z,27.39
2023-02-16T11:27:20.881Z,27.29
2023-02-16T11:29:51.689Z,26.90
2023-02-16T11:32:25.068Z,26.99
2023-02-16T11:34:55.076Z,26.91
2023-02-16T11:37:30.153Z,27.16
2023-02-16T11:40:03.875Z,26.95
2023-02-16T11:42:44.937Z,26.81
2023-02-16T11:45:35.530Z,26.81
2023-02-16T11:48:13.635Z,26.80
2023-02-16T11:50:58.940Z,26.99
2023-02-16T11:53:33.862Z,26.73
2023-02-16T11:56:29.776Z,26.83
2023-02-16T11:59:16.725Z,26.58
2023-02-16T12:02:14.454Z,26.65
2023-02-16T12:04:46.755Z,26.37
2023-02-16T12:07:42.216Z,26.38
2023-02-16T12:10:13.901Z,26.22
2023-02-16T12:13:04.872Z,26.46
2023-02-16T12:15:59.712Z,26.31
2023-02-16T12:18:43.317Z,26.24
2023-02-16T12:21:24.854Z,25.95
2023-02-16T12:24:13.787Z,26.13
2023-02-16T12:26:53.128Z,26.03
2023-02-16T12:29:48.709Z,26.05
2023-02-16T12:32:49.350Z,25.95
2023-02-16T12:35:35.485Z,25.82
2023-02-16T12:38:43.460Z,25.70
2023-02-16T12:41:12.387Z,25.38
2023-02-16T12:43:53.321Z,25.52
2023-02-16T12:46:31.527Z,25.34
2023-02-16T17:21:50.420Z,21.21
2023-02-16T17:24:19.641Z,21.09
2023-02-16T17:26:48.360Z,21.05
2023-02-16T17:29:17.181Z,21.04
2023-02-16T17:31:46.001Z,21.03
2023-02-16T17:34:15.336Z,21.04
2023-02-16T17:36:44.132Z,21.04
2023-02-16T17:39:13.079Z,21.00
2023-02-16T17:41:41.813Z,20.97
2023-02-16T17:44:11.008Z,20.95
2023-02-16T17:46:40.481Z,20.90
2023-02-16T17:49:12.448Z,20.96
2023-02-16T17:51:41.958Z,20.88
2023-02-16T17:54:10.811Z,20.80
2023-02-16T17:56:40.889Z,20.82
2023-02-16T17:59:11.733Z,20.80
2023-02-16T18:01:40.617Z,20.77
2023-02-16T18:04:09.691Z,20.81
2023-02-16T18:06:38.977Z,20.80
2023-02-16T18:09:08.659Z,20.74
2023-02-16T18:11:37.544Z,20.68
2023-02-16T18:14:06.322Z,20.63
2023-02-16T18:16:35.362Z,20.70
2023-02-16T18:19:05.344Z,20.66
2023-02-16T18:21:34.424Z,20.64
2023-02-16T18:24:03.167Z,20.60
2023-02-16T18:26:34.572Z,20.56
2023-02-16T18:29:03.768Z,20.54
2023-02-16T18:31:32.769Z,20.54
2023-02-16T18:34:01.894Z,20.53
2023-02-16T18:36:30.621Z,20.51
2023-02-16T18:38:59.700Z,20.49
2023-02-16T18:41:28.415Z,20.40
2023-02-16T18:43:57.267Z,20.29
2023-02-16T18:46:26.158Z,20.19
2023-02-16T18:48:55.178Z,20.13
2023-02-16T18:51:26.786Z,20.15
2023-02-16T18:53:56.253Z,20.16
2023-02-16T18:56:25.273Z,20.17
2023-02-16T18:58:54.774Z,20.21
2023-02-16T19:01:31.330Z,20.46
2023-02-16T19:04:02.230Z,20.35
2023-02-16T19:06:31.508Z,20.32
2023-02-16T19:09:00.853Z,20.29
2023-02-16T19:11:31.670Z,20.28
2023-02-16T19:14:00.847Z,20.32
2023-02-16T19:16:29.734Z,20.32
2023-02-16T19:18:58.892Z,20.34
2023-02-16T19:21:27.672Z,20.29
2023-02-16T19:23:56.778Z,20.24
2023-02-16T19:26:25.573Z,20.24
2023-02-16T19:28:54.965Z,20.23
2023-02-16T19:31:32.253Z,20.33
2023-02-16T19:34:01.636Z,20.10
2023-02-16T19:36:31.694Z,20.09
2023-02-16T19:39:01.101Z,20.08
2023-02-16T19:41:32.733Z,20.14
2023-02-16T19:44:01.816Z,20.02
2023-02-16T19:46:32.434Z,20.00
2023-02-16T19:49:02.253Z,20.03
2023-02-16T19:51:31.066Z,19.94
2023-02-16T19:54:00.690Z,19.88
2023-02-16T19:56:29.506Z,19.81
2023-02-16T19:59:01.011Z,19.84
2023-02-16T20:01:30.597Z,19.78
2023-02-16T20:04:01.058Z,19.76
2023-02-16T20:06:29.912Z,19.71
2023-02-16T20:09:00.252Z,19.74
2023-02-16T20:11:30.933Z,19.73
2023-02-16T20:14:00.426Z,19.65
2023-02-16T20:16:29.769Z,19.65
2023-02-16T20:18:59.980Z,19.64
2023-02-16T20:21:30.231Z,19.70
2023-02-16T20:24:02.487Z,19.72
2023-02-16T20:26:41.304Z,19.74
2023-02-16T20:29:12.542Z,19.61
2023-02-16T20:31:45.206Z,19.68
2023-02-16T20:34:14.401Z,19.56
2023-02-16T20:36:43.253Z,19.55
2023-02-16T20:39:12.588Z,19.52
2023-02-16T20:41:41.976Z,19.49
2023-02-16T20:44:11.702Z,19.50
2023-02-16T20:46:41.784Z,19.52
2023-02-16T20:49:11.785Z,19.51
2023-02-16T20:51:42.092Z,19.44
2023-02-16T20:54:12.705Z,19.47
2023-02-16T20:56:41.775Z,19.37
2023-02-16T20:59:12.063Z,19.41
2023-02-16T21:01:52.557Z,19.44
2023-02-16T21:04:22.278Z,19.36
2023-02-16T21:06:51.138Z,19.35
2023-02-16T21:09:20.189Z,19.24
2023-02-16T21:11:49.112Z,19.17
2023-02-16T21:14:18.165Z,19.14
2023-02-16T21:16:47.558Z,19.14
2023-02-16T21:19:22.795Z,19.15
2023-02-16T21:21:53.671Z,19.21
2023-02-16T21:24:22.805Z,19.11
2023-02-16T21:26:51.482Z,19.13
2023-02-16T21:29:20.428Z,19.07
2023-02-16T21:31:49.263Z,19.10
2023-02-16T21:34:18.428Z,19.10
2023-02-16T21:36:47.302Z,19.08
2023-02-16T21:39:16.392Z,19.01
2023-02-16T21:41:45.118Z,19.04
2023-02-16T21:44:16.983Z,19.10
2023-02-16T21:46:48.682Z,19.06
2023-02-16T21:49:20.662Z,19.07
2023-02-16T21:51:50.000Z,18.99
2023-02-16T21:54:40.422Z,19.02
2023-02-16T21:57:09.276Z,18.93
2023-02-16T21:59:38.890Z,18.90
2023-02-16T22:02:07.856Z,18.89
2023-02-16T22:04:36.648Z,18.87
2023-02-16T22:07:05.678Z,18.87
2023-02-16T22:09:34.459Z,18.79
2023-02-16T22:12:03.431Z,18.74
2023-02-16T22:14:34.105Z,18.77
2023-02-16T22:17:04.146Z,18.73
2023-02-16T22:19:32.799Z,18.74
2023-02-16T22:22:01.865Z,18.64
2023-02-16T22:24:30.653Z,18.59
2023-02-16T22:26:59.744Z,18.56
2023-02-16T22:29:28.500Z,18.54
2023-02-16T22:31:57.524Z,18.54
2023-02-16T22:34:26.358Z,18.53
2023-02-16T22:36:55.424Z,18.45
2023-02-16T22:39:24.192Z,18.40
2023-02-16T22:41:53.233Z,18.36
2023-02-16T22:44:22.055Z,18.30
2023-02-16T22:46:51.332Z,18.20
2023-02-16T22:49:20.036Z,18.14
2023-02-16T22:51:49.918Z,18.20
2023-02-16T22:54:18.685Z,18.14
2023-02-16T22:56:47.964Z,18.11
2023-02-16T22:59:16.679Z,18.15
2023-02-16T23:01:45.831Z,18.16
2023-02-16T23:04:16.532Z,18.23
2023-02-16T23:06:46.661Z,18.17
2023-02-16T23:09:18.513Z,18.34
2023-02-16T23:11:48.514Z,18.24
2023-02-16T23:14:18.607Z,18.26
2023-02-16T23:16:53.123Z,18.41
2023-02-16T23:19:25.749Z,18.40
2023-02-16T23:21:55.023Z,18.61
2023-02-16T23:24:25.282Z,18.36
2023-02-16T23:26:55.032Z,18.34
2023-02-16T23:29:23.925Z,18.39
2023-02-16T23:31:53.920Z,18.44
2023-02-16T23:34:22.987Z,18.38
2023-02-16T23:36:51.886Z,18.33
2023-02-16T23:39:20.688Z,18.23
2023-02-16T23:41:49.925Z,18.23
2023-02-16T23:44:18.751Z,18.18
2023-02-16T23:46:47.655Z,18.17
2023-02-16T23:49:16.662Z,18.19
2023-02-16T23:51:45.600Z,18.20
2023-02-16T23:54:14.323Z,18.26
2023-02-16T23:56:43.438Z,18.31
2023-02-16T23:59:12.144Z,18.30
